Time;durP1;ratioP1;P1;durP2;ratioP2;P2;SDS_P1;SDS_P2;PMS_P1;PMS_P2;Temp;Humidity;BMP_temperature;BMP_pressure;BME280_temperature;BME280_humidity;BME280_pressure;Samples;Min_cycle;Max_cycle;Signal;HPM_P1;HPM_P2
2024/04/08 00:01:09;;;;;;;6.10;1.53;;;15.70;99.90;;;;;;4947288;29;20249;-90
2024/04/08 00:03:35;;;;;;;3.10;1.20;;;15.70;99.90;;;;;;4943260;29;20284;-89
2024/04/08 00:06:02;;;;;;;2.10;1.30;;;15.80;99.90;;;;;;4951701;28;20328;-89
2024/04/08 00:08:29;;;;;;;2.73;1.43;;;15.80;99.90;;;;;;4943529;29;20205;-89
2024/04/08 00:10:56;;;;;;;6.43;1.70;;;15.70;99.90;;;;;;4947549;29;20572;-90
2024/04/08 00:13:22;;;;;;;2.93;1.30;;;15.70;99.90;;;;;;4941900;28;21154;-89
2024/04/08 00:15:58;;;;;;;2.93;1.33;;;15.70;99.90;;;;;;4952803;28;20261;-89
2024/04/08 00:18:24;;;;;;;2.63;1.37;;;15.60;99.90;;;;;;4941548;29;20582;-90
2024/04/08 00:21:00;;;;;;;2.23;1.50;;;15.70;99.90;;;;;;4941334;29;20289;-90
2024/04/08 00:23:26;;;;;;;2.13;1.40;;;15.70;99.90;;;;;;4951064;29;20300;-90
2024/04/08 00:25:55;;;;;;;3.53;1.40;;;15.70;99.90;;;;;;4951504;28;20742;-90
2024/04/08 00:28:21;;;;;;;3.50;1.50;;;15.70;99.90;;;;;;4948272;29;20209;-90
2024/04/08 00:30:48;;;;;;;1.87;1.43;;;15.80;99.90;;;;;;4948576;29;20304;-90
2024/04/08 00:33:13;;;;;;;2.67;1.53;;;15.70;99.90;;;;;;4952535;29;20616;-88
2024/04/08 00:35:40;;;;;;;3.53;1.60;;;15.80;99.90;;;;;;4952545;29;20288;-89
2024/04/08 00:38:06;;;;;;;2.80;1.60;;;15.70;99.90;;;;;;4942409;28;21292;-89
2024/04/08 00:40:37;;;;;;;2.20;1.13;;;15.70;99.90;;;;;;4948629;28;20331;-89
2024/04/08 00:43:07;;;;;;;2.30;1.00;;;15.70;99.90;;;;;;4951344;28;20579;-88
2024/04/08 00:45:35;;;;;;;5.27;1.70;;;15.70;99.90;;;;;;4953308;29;20323;-89
2024/04/08 00:48:02;;;;;;;1.60;1.43;;;15.60;99.90;;;;;;4952413;28;20229;-89
2024/04/08 00:50:29;;;;;;;3.13;1.50;;;15.50;99.90;;;;;;4956412;28;20618;-90
2024/04/08 00:52:55;;;;;;;2.77;1.20;;;15.50;99.90;;;;;;4955774;29;20605;-89
2024/04/08 00:55:22;;;;;;;1.83;1.30;;;15.50;99.90;;;;;;4952340;29;20690;-89
2024/04/08 00:57:50;;;;;;;4.10;1.70;;;15.40;99.90;;;;;;4950071;28;20264;-89
2024/04/08 01:00:18;;;;;;;1.47;1.37;;;15.40;99.90;;;;;;4951214;29;20262;-90
2024/04/08 01:02:45;;;;;;;2.87;1.40;;;15.50;99.90;;;;;;4955750;29;20295;-90
2024/04/08 01:05:13;;;;;;;4.37;1.53;;;15.50;99.90;;;;;;4952745;29;20239;-88
2024/04/08 01:07:40;;;;;;;4.80;1.70;;;15.40;99.90;;;;;;4949395;28;20268;-89
2024/04/08 01:10:07;;;;;;;2.03;1.37;;;15.40;99.90;;;;;;4948080;29;20672;-89
2024/04/08 01:12:33;;;;;;;4.47;1.40;;;15.30;99.90;;;;;;4946554;29;20627;-88
2024/04/08 01:15:00;;;;;;;6.53;1.50;;;15.40;99.90;;;;;;4953643;28;20201;-89
2024/04/08 01:17:28;;;;;;;2.53;1.40;;;15.40;99.90;;;;;;4944042;29;20305;-89
2024/04/08 01:19:54;;;;;;;2.93;1.40;;;15.40;99.90;;;;;;4950736;29;20216;-90
2024/04/08 01:22:21;;;;;;;3.93;1.80;;;15.40;99.90;;;;;;4949171;29;20201;-88
2024/04/08 01:24:49;;;;;;;3.70;1.50;;;15.50;99.90;;;;;;4948704;29;20218;-88
2024/04/08 01:27:15;;;;;;;3.50;1.60;;;15.50;99.90;;;;;;4949077;28;20308;-89
2024/04/08 01:29:41;;;;;;;2.93;1.80;;;15.50;99.90;;;;;;4947591;29;20305;-88
2024/04/08 01:32:07;;;;;;;4.07;1.60;;;15.50;99.90;;;;;;4950786;29;20224;-90
2024/04/08 01:34:34;;;;;;;4.10;1.53;;;15.50;99.90;;;;;;4949590;29;20296;-89
2024/04/08 01:37:00;;;;;;;2.10;1.80;;;15.40;99.90;;;;;;4947931;29;20263;-89
2024/04/08 01:39:27;;;;;;;2.60;1.73;;;15.40;99.90;;;;;;4953574;29;20225;-90
2024/04/08 01:41:54;;;;;;;5.53;2.17;;;15.40;99.90;;;;;;4952524;29;20300;-88
2024/04/08 01:44:21;;;;;;;2.10;1.80;;;15.30;99.90;;;;;;4951848;28;20276;-89
2024/04/08 01:46:47;;;;;;;2.37;1.63;;;15.20;99.90;;;;;;4952448;29;20308;-89
2024/04/08 01:49:13;;;;;;;5.17;2.20;;;15.20;99.90;;;;;;4946676;29;20281;-89
2024/04/08 01:51:39;;;;;;;5.30;2.00;;;15.20;99.90;;;;;;4953148;29;20209;-89
2024/04/08 01:54:11;;;;;;;2.10;1.57;;;15.30;99.90;;;;;;4941234;28;20193;-90
2024/04/08 01:56:37;;;;;;;3.20;1.80;;;15.20;99.90;;;;;;4946201;28;20939;-89
2024/04/08 01:59:06;;;;;;;3.63;2.07;;;15.10;99.90;;;;;;4951678;29;20208;-89
2024/04/08 02:01:32;;;;;;;4.37;1.80;;;15.10;99.90;;;;;;4946195;29;20214;-89
2024/04/08 02:03:59;;;;;;;3.17;1.90;;;15.00;99.90;;;;;;4947296;29;20279;-89
2024/04/08 02:06:24;;;;;;;3.50;1.77;;;15.00;99.90;;;;;;4949676;28;20308;-90
2024/04/08 02:08:51;;;;;;;5.03;2.07;;;15.00;99.90;;;;;;4946101;29;20279;-90
2024/04/08 02:11:17;;;;;;;2.87;2.03;;;14.90;99.90;;;;;;4947288;28;20284;-89
2024/04/08 02:13:44;;;;;;;2.80;1.80;;;15.00;99.90;;;;;;4952548;28;20308;-90
2024/04/08 02:16:13;;;;;;;3.10;2.00;;;15.00;99.90;;;;;;4952486;28;20222;-89
2024/04/08 02:18:40;;;;;;;3.27;1.90;;;14.90;99.90;;;;;;4949101;29;20205;-90
2024/04/08 02:21:11;;;;;;;3.33;1.87;;;14.80;99.90;;;;;;4950319;29;20642;-89
2024/04/08 02:23:38;;;;;;;2.17;1.97;;;14.80;99.90;;;;;;4950781;29;20651;-88
2024/04/08 02:26:04;;;;;;;3.83;1.90;;;14.80;99.90;;;;;;4950033;28;20229;-89
2024/04/08 02:28:31;;;;;;;4.93;1.77;;;14.80;99.90;;;;;;4947837;29;20201;-87
2024/04/08 02:31:00;;;;;;;3.07;2.20;;;14.80;99.90;;;;;;4952495;28;20209;-89
2024/04/08 02:33:29;;;;;;;3.10;1.90;;;14.80;99.90;;;;;;4938535;29;20205;-89
2024/04/08 02:36:01;;;;;;;3.37;2.13;;;14.70;99.90;;;;;;4944493;28;20209;-89
2024/04/08 02:38:27;;;;;;;5.20;1.80;;;14.60;99.90;;;;;;4943335;29;20201;-88
2024/04/08 02:40:53;;;;;;;3.90;1.80;;;14.60;99.90;;;;;;4943141;29;20405;-88
2024/04/08 02:43:20;;;;;;;5.60;2.53;;;14.60;99.90;;;;;;4944805;29;20288;-89
2024/04/08 02:45:46;;;;;;;5.10;2.20;;;14.60;99.90;;;;;;4947479;29;20233;-89
2024/04/08 02:48:14;;;;;;;3.60;2.30;;;14.60;99.90;;;;;;4948982;29;20375;-89
2024/04/08 02:50:42;;;;;;;2.40;1.90;;;14.70;99.90;;;;;;4953755;28;20296;-90
2024/04/08 02:53:10;;;;;;;3.30;1.77;;;14.60;99.90;;;;;;4946405;29;20583;-90
2024/04/08 02:55:36;;;;;;;4.03;1.97;;;14.60;99.90;;;;;;4943198;29;20499;-89
2024/04/08 02:58:03;;;;;;;3.50;1.90;;;14.50;99.90;;;;;;4945247;28;20226;-90
2024/04/08 03:00:28;;;;;;;3.77;1.90;;;14.50;99.90;;;;;;4938651;28;20237;-90
2024/04/08 03:02:55;;;;;;;6.00;1.90;;;14.50;99.90;;;;;;4948184;29;20237;-90
2024/04/08 03:05:21;;;;;;;5.03;2.00;;;14.50;99.90;;;;;;4947445;29;20227;-89
2024/04/08 03:07:51;;;;;;;1.83;1.53;;;14.60;99.90;;;;;;4948641;29;20263;-90
2024/04/08 03:10:17;;;;;;;3.93;2.03;;;14.60;99.90;;;;;;4942840;29;20210;-90
2024/04/08 03:12:44;;;;;;;5.73;1.97;;;14.60;99.90;;;;;;4952848;29;20773;-90
2024/04/08 03:15:10;;;;;;;4.83;2.50;;;14.60;99.90;;;;;;4940800;29;20202;-90
2024/04/08 03:17:36;;;;;;;3.47;2.20;;;14.60;99.90;;;;;;4943629;29;20593;-90
2024/04/08 03:20:04;;;;;;;2.93;1.60;;;14.60;99.90;;;;;;4943515;29;20314;-90
2024/04/08 03:22:31;;;;;;;3.90;2.00;;;14.60;99.90;;;;;;4946285;29;20841;-90
2024/04/08 03:24:58;;;;;;;3.57;2.57;;;14.60;99.90;;;;;;4949423;29;20316;-89
2024/04/08 03:27:25;;;;;;;2.83;2.13;;;14.50;99.90;;;;;;4949868;28;20255;-89
2024/04/08 03:29:51;;;;;;;2.63;2.13;;;14.60;99.90;;;;;;4944666;28;22314;-89
2024/04/08 03:32:18;;;;;;;2.93;2.27;;;14.60;99.90;;;;;;4948454;29;20288;-89
2024/04/08 03:34:44;;;;;;;4.37;2.10;;;14.50;99.90;;;;;;4942101;29;20200;-90
2024/04/08 03:37:11;;;;;;;5.30;2.20;;;14.60;99.90;;;;;;4945184;28;20312;-90
2024/04/08 03:39:38;;;;;;;3.20;2.30;;;14.50;99.90;;;;;;4944044;29;20207;-91
2024/04/08 03:42:06;;;;;;;3.93;1.87;;;14.60;99.90;;;;;;4946316;29;20205;-90
2024/04/08 03:44:33;;;;;;;3.73;2.30;;;14.60;99.90;;;;;;4944728;29;20650;-89
2024/04/08 03:47:01;;;;;;;3.27;2.23;;;14.60;99.90;;;;;;4947686;28;20316;-90
2024/04/08 03:49:26;;;;;;;4.90;2.23;;;14.70;99.90;;;;;;4950150;28;20260;-89
2024/04/08 03:51:53;;;;;;;6.50;2.17;;;14.60;99.90;;;;;;4950552;29;20618;-89
2024/04/08 03:54:20;;;;;;;2.63;1.93;;;14.60;99.90;;;;;;4950761;29;20222;-90
2024/04/08 03:56:47;;;;;;;5.13;2.27;;;14.60;99.90;;;;;;4939504;29;20224;-90
2024/04/08 03:59:14;;;;;;;2.97;2.07;;;14.60;99.90;;;;;;4945389;28;20216;-89
2024/04/08 04:01:42;;;;;;;6.00;2.20;;;14.60;99.90;;;;;;4944977;29;20209;-89
2024/04/08 04:04:08;;;;;;;4.63;2.30;;;14.60;99.90;;;;;;4946012;28;20673;-89
2024/04/08 04:06:35;;;;;;;3.83;2.30;;;14.50;99.90;;;;;;4945824;29;20229;-89
2024/04/08 04:09:01;;;;;;;3.73;1.93;;;14.40;99.90;;;;;;4945351;29;20205;-89
2024/04/08 04:11:28;;;;;;;3.27;2.00;;;14.40;99.90;;;;;;4945684;29;20194;-89
2024/04/08 04:13:54;;;;;;;5.20;2.20;;;14.40;99.90;;;;;;4947708;29;20273;-89
2024/04/08 04:16:23;;;;;;;5.97;2.50;;;14.50;99.90;;;;;;4951359;28;20265;-90
2024/04/08 04:18:51;;;;;;;3.40;2.37;;;14.60;99.90;;;;;;4949829;29;20594;-90
2024/04/08 04:21:18;;;;;;;3.93;2.20;;;14.60;99.90;;;;;;4953526;29;20207;-90
2024/04/08 04:23:44;;;;;;;2.83;2.53;;;14.60;99.90;;;;;;4948150;29;20201;-88
2024/04/08 04:26:11;;;;;;;4.33;2.23;;;14.60;99.90;;;;;;4950004;28;20240;-90
2024/04/08 04:28:37;;;;;;;2.33;2.07;;;14.60;99.90;;;;;;4949782;29;20231;-90
2024/04/08 04:31:04;;;;;;;4.43;2.43;;;14.60;99.90;;;;;;4942673;28;20280;-90
2024/04/08 04:33:32;;;;;;;5.43;2.87;;;14.60;99.90;;;;;;4943674;29;20220;-90
2024/04/08 04:36:00;;;;;;;2.33;2.10;;;14.70;99.90;;;;;;4955498;28;20213;-90
2024/04/08 04:38:26;;;;;;;4.13;2.27;;;14.70;99.90;;;;;;4970230;23;20237;-86
2024/04/08 04:41:02;;;;;;;4.73;2.53;;;14.70;99.90;;;;;;4948049;29;20201;-86
2024/04/08 04:43:28;;;;;;;4.00;2.50;;;14.70;99.90;;;;;;4955957;29;20248;-86
2024/04/08 04:45:55;;;;;;;4.00;2.67;;;14.70;99.90;;;;;;4948445;29;20296;-86
2024/04/08 04:48:21;;;;;;;4.10;2.23;;;14.70;99.90;;;;;;4949743;28;20332;-86
2024/04/08 04:50:50;;;;;;;3.43;2.60;;;14.70;99.90;;;;;;4948559;29;20712;-86
2024/04/08 04:53:16;;;;;;;4.10;2.77;;;14.60;99.90;;;;;;4945985;29;20202;-86
2024/04/08 04:55:43;;;;;;;4.80;2.63;;;14.50;99.90;;;;;;4943705;29;20293;-86
2024/04/08 04:58:09;;;;;;;4.57;3.10;;;14.50;99.90;;;;;;4939930;29;20320;-86
2024/04/08 05:00:37;;;;;;;7.00;2.80;;;14.50;99.90;;;;;;4943212;29;20652;-90
2024/04/08 05:03:04;;;;;;;3.63;2.90;;;14.60;99.90;;;;;;4940501;29;20293;-89
2024/04/08 05:05:31;;;;;;;6.90;3.27;;;14.60;99.90;;;;;;4947505;29;20709;-89
2024/04/08 05:07:58;;;;;;;4.73;3.40;;;14.60;99.90;;;;;;4947840;29;20342;-89
2024/04/08 05:10:25;;;;;;;5.13;3.30;;;14.60;99.90;;;;;;4947482;29;20214;-89
2024/04/08 05:12:51;;;;;;;6.57;4.30;;;14.60;99.90;;;;;;4950845;29;20209;-89
2024/04/08 05:15:18;;;;;;;6.07;3.40;;;14.60;99.90;;;;;;4947410;29;20205;-89
2024/04/08 05:17:44;;;;;;;5.53;3.43;;;14.60;99.90;;;;;;4951537;29;20753;-88
2024/04/08 05:20:11;;;;;;;6.20;3.70;;;14.60;99.90;;;;;;4952740;29;20236;-88
2024/04/08 05:22:39;;;;;;;4.60;3.67;;;14.60;99.90;;;;;;4949856;29;20244;-88
2024/04/08 05:25:07;;;;;;;5.73;3.40;;;14.60;99.90;;;;;;4946856;29;20248;-88
2024/04/08 05:27:33;;;;;;;5.27;3.50;;;14.60;99.90;;;;;;4946786;28;20249;-88
2024/04/08 05:30:00;;;;;;;5.53;3.90;;;14.60;99.90;;;;;;4955564;29;20251;-88
2024/04/08 05:32:26;;;;;;;5.23;4.20;;;14.60;99.90;;;;;;4948733;29;20832;-88
2024/04/08 05:34:53;;;;;;;6.73;4.10;;;14.60;99.90;;;;;;4942050;29;20348;-88
2024/04/08 05:37:19;;;;;;;5.57;4.13;;;14.60;99.90;;;;;;4951474;29;20268;-88
2024/04/08 05:39:46;;;;;;;7.10;3.83;;;14.60;99.90;;;;;;4951354;29;20693;-88
2024/04/08 05:42:13;;;;;;;6.70;4.27;;;14.60;99.90;;;;;;4947548;29;20288;-87
2024/04/08 05:44:40;;;;;;;5.40;3.60;;;14.70;99.90;;;;;;4949264;29;20205;-88
2024/04/08 05:47:05;;;;;;;7.30;4.20;;;14.70;99.90;;;;;;4949694;29;20691;-88
2024/04/08 05:49:32;;;;;;;6.10;3.87;;;14.70;99.90;;;;;;4945684;28;20212;-88
2024/04/08 05:51:58;;;;;;;6.57;4.70;;;14.70;99.90;;;;;;4945733;29;20288;-89
2024/04/08 05:54:26;;;;;;;6.00;4.57;;;14.70;99.90;;;;;;4943176;29;20291;-89
2024/04/08 05:56:52;;;;;;;4.97;4.00;;;14.70;99.90;;;;;;4946028;28;20221;-89
2024/04/08 05:59:21;;;;;;;5.27;4.53;;;14.70;99.90;;;;;;4946594;29;20229;-89
2024/04/08 06:01:47;;;;;;;10.37;4.77;;;14.80;99.90;;;;;;4944596;29;20285;-89
2024/04/08 06:04:14;;;;;;;6.10;4.37;;;14.80;99.90;;;;;;4948798;29;20726;-89
2024/04/08 06:06:40;;;;;;;5.27;4.43;;;14.80;99.90;;;;;;4947538;29;20234;-88
2024/04/08 06:09:10;;;;;;;4.80;4.30;;;14.80;99.90;;;;;;4947617;29;20293;-87
2024/04/08 06:11:36;;;;;;;8.47;4.23;;;14.80;99.90;;;;;;4943334;29;20629;-89
2024/04/08 06:14:03;;;;;;;5.10;4.47;;;14.80;99.90;;;;;;4945400;29;20268;-89
2024/04/08 06:16:30;;;;;;;7.07;4.53;;;14.90;99.90;;;;;;4946338;29;20205;-89
2024/04/08 06:18:57;;;;;;;6.50;4.67;;;14.90;99.90;;;;;;4940961;29;20615;-89
2024/04/08 06:21:23;;;;;;;6.57;4.73;;;14.90;99.90;;;;;;4942322;29;20822;-88
2024/04/08 06:23:49;;;;;;;6.03;4.60;;;15.00;99.90;;;;;;4938332;29;20297;-88
2024/04/08 06:26:16;;;;;;;5.47;4.70;;;15.00;99.90;;;;;;4948347;29;20383;-88
2024/04/08 06:28:43;;;;;;;5.57;4.73;;;15.00;99.90;;;;;;4941622;29;20613;-88
2024/04/08 06:31:09;;;;;;;8.50;5.10;;;15.00;99.90;;;;;;4946654;29;20656;-88
2024/04/08 06:33:37;;;;;;;7.20;5.23;;;15.00;99.90;;;;;;4943713;29;20293;-89
2024/04/08 06:36:03;;;;;;;6.27;4.57;;;15.00;99.90;;;;;;4943369;28;20237;-88
2024/04/08 06:38:30;;;;;;;9.73;5.20;;;15.00;99.90;;;;;;4939404;29;20259;-89
2024/04/08 06:40:56;;;;;;;6.27;4.40;;;15.00;99.90;;;;;;4940243;29;20399;-88
2024/04/08 06:43:23;;;;;;;8.47;4.90;;;15.00;99.90;;;;;;4945322;29;20745;-87
2024/04/08 06:45:54;;;;;;;5.17;4.30;;;15.00;99.90;;;;;;4947403;29;20249;-88
2024/04/08 06:48:21;;;;;;;5.30;4.60;;;15.00;99.90;;;;;;4942213;29;20225;-87
2024/04/08 06:50:49;;;;;;;5.63;4.37;;;15.00;99.90;;;;;;4943334;28;20288;-89
2024/04/08 06:53:15;;;;;;;6.53;4.70;;;15.00;99.90;;;;;;4939350;29;20198;-90
2024/04/08 06:55:42;;;;;;;5.40;4.67;;;15.00;99.90;;;;;;4938979;29;20252;-88
2024/04/08 06:58:11;;;;;;;5.10;4.53;;;15.00;99.90;;;;;;4946101;29;20225;-89
2024/04/08 07:00:37;;;;;;;5.47;4.17;;;15.00;99.90;;;;;;4947552;29;20201;-87
2024/04/08 07:03:05;;;;;;;5.67;4.40;;;15.00;99.90;;;;;;4938694;29;20666;-86
2024/04/08 07:05:31;;;;;;;7.20;4.27;;;15.00;99.90;;;;;;4942095;28;20229;-87
2024/04/08 07:08:02;;;;;;;6.73;4.43;;;15.00;99.90;;;;;;4943765;29;20226;-87
2024/04/08 07:10:28;;;;;;;7.23;4.07;;;15.00;99.90;;;;;;4947075;29;20210;-87
2024/04/08 07:12:56;;;;;;;8.57;4.43;;;15.00;99.90;;;;;;4940688;29;20198;-87
2024/04/08 07:15:22;;;;;;;6.00;4.20;;;15.00;99.90;;;;;;4936519;29;20201;-87
2024/04/08 07:17:49;;;;;;;5.87;4.30;;;15.10;99.90;;;;;;4938981;28;20225;-87
2024/04/08 07:20:15;;;;;;;6.90;3.87;;;15.10;99.90;;;;;;4931890;29;20812;-87
2024/04/08 07:22:42;;;;;;;5.40;3.80;;;15.20;99.90;;;;;;4936200;29;20209;-87
2024/04/08 07:25:09;;;;;;;6.03;4.03;;;15.20;99.90;;;;;;4935786;29;20296;-87
2024/04/08 07:27:36;;;;;;;4.20;3.80;;;15.20;99.90;;;;;;4942624;29;20228;-87
2024/04/08 07:30:03;;;;;;;5.27;3.83;;;15.20;99.90;;;;;;4945705;29;20206;-86
2024/04/08 07:32:30;;;;;;;7.90;4.20;;;15.20;99.90;;;;;;4940684;29;20234;-87
2024/04/08 07:34:56;;;;;;;4.43;3.53;;;15.30;99.90;;;;;;4936100;29;20210;-87
2024/04/08 07:37:23;;;;;;;4.07;3.40;;;15.40;99.90;;;;;;4938557;29;20328;-87
2024/04/08 07:39:50;;;;;;;6.67;3.80;;;15.40;99.90;;;;;;4939076;29;20551;-88
2024/04/08 07:42:18;;;;;;;4.73;3.83;;;15.50;99.90;;;;;;4935787;29;20194;-87
2024/04/08 07:44:44;;;;;;;7.43;4.20;;;15.60;99.90;;;;;;4938628;29;20650;-87
2024/04/08 07:47:10;;;;;;;6.73;3.53;;;15.60;99.90;;;;;;4936737;29;20228;-86
2024/04/08 07:49:36;;;;;;;5.53;3.43;;;15.60;99.90;;;;;;4934940;28;20629;-87
2024/04/08 07:52:03;;;;;;;4.83;3.47;;;15.50;99.90;;;;;;4937926;29;20220;-86
2024/04/08 07:54:29;;;;;;;3.53;3.00;;;15.50;99.90;;;;;;4934496;29;20293;-87
2024/04/08 07:56:56;;;;;;;3.57;2.93;;;15.50;99.90;;;;;;4938805;29;20309;-86
2024/04/08 07:59:23;;;;;;;4.27;3.07;;;15.50;99.90;;;;;;4937964;29;20574;-86
2024/04/08 08:01:52;;;;;;;4.33;2.90;;;15.50;99.90;;;;;;4944418;29;20200;-87
2024/04/08 08:04:18;;;;;;;5.43;2.80;;;15.50;99.90;;;;;;4936984;29;20359;-86
2024/04/08 08:06:45;;;;;;;5.13;2.80;;;15.50;99.90;;;;;;4945118;29;20225;-87
2024/04/08 08:09:11;;;;;;;4.33;2.70;;;15.40;99.90;;;;;;4941449;29;20285;-86
2024/04/08 08:11:38;;;;;;;4.23;3.10;;;15.40;99.90;;;;;;4935570;29;20214;-87
2024/04/08 08:14:05;;;;;;;5.00;3.27;;;15.40;99.90;;;;;;4935182;29;20245;-87
2024/04/08 08:16:34;;;;;;;6.33;2.97;;;15.40;99.90;;;;;;4938632;29;20300;-87
2024/04/08 08:19:01;;;;;;;4.03;2.50;;;15.40;99.90;;;;;;4938243;29;20209;-86
2024/04/08 08:21:28;;;;;;;3.07;2.70;;;15.40;99.90;;;;;;4940938;29;20761;-87
2024/04/08 08:23:56;;;;;;;4.07;2.53;;;15.40;99.90;;;;;;4941469;29;20301;-87
2024/04/08 08:26:23;;;;;;;3.00;2.33;;;15.40;99.90;;;;;;4933385;29;20229;-87
2024/04/08 08:28:50;;;;;;;4.87;2.73;;;15.40;99.90;;;;;;4941344;29;20202;-87
2024/04/08 08:31:17;;;;;;;4.80;2.40;;;15.30;99.90;;;;;;4941314;29;20205;-87
2024/04/08 08:33:45;;;;;;;4.07;2.20;;;15.30;99.90;;;;;;4939587;29;21817;-88
2024/04/08 08:36:11;;;;;;;3.83;2.53;;;15.30;99.90;;;;;;4938055;29;20297;-87
2024/04/08 08:38:38;;;;;;;3.87;2.47;;;15.30;99.90;;;;;;4934755;29;20601;-88
2024/04/08 08:41:05;;;;;;;3.17;2.03;;;15.30;99.90;;;;;;4935080;29;20201;-87
2024/04/08 08:43:32;;;;;;;3.20;2.10;;;15.30;99.90;;;;;;4936004;29;20201;-86
2024/04/08 08:45:59;;;;;;;4.27;2.23;;;15.40;99.90;;;;;;4941489;29;20243;-88
2024/04/08 08:48:26;;;;;;;3.10;1.90;;;15.40;99.90;;;;;;4941648;29;20720;-86
2024/04/08 08:50:54;;;;;;;3.40;2.07;;;15.40;99.90;;;;;;4939037;28;20296;-86
2024/04/08 08:53:21;;;;;;;2.50;2.30;;;15.30;99.90;;;;;;4936723;29;20247;-86
2024/04/08 08:55:47;;;;;;;3.03;2.37;;;15.10;99.90;;;;;;4941943;29;20202;-86
2024/04/08 08:58:15;;;;;;;3.93;2.10;;;15.00;99.90;;;;;;4934633;29;20228;-86
2024/04/08 09:00:41;;;;;;;3.63;3.07;;;15.00;99.90;;;;;;4933072;29;20750;-86
2024/04/08 09:03:12;;;;;;;3.73;2.67;;;15.00;99.90;;;;;;4934288;29;20297;-87
2024/04/08 09:05:38;;;;;;;5.40;3.10;;;14.90;99.90;;;;;;4944439;29;20210;-87
2024/04/08 09:08:07;;;;;;;4.87;2.70;;;14.80;99.90;;;;;;4945461;29;20231;-86
2024/04/08 09:10:40;;;;;;;6.70;3.23;;;14.80;99.90;;;;;;4939390;29;20209;-86
2024/04/08 09:13:18;;;;;;;4.93;3.07;;;14.90;99.90;;;;;;4943035;29;20190;-87
2024/04/08 09:15:44;;;;;;;3.37;2.50;;;14.90;99.90;;;;;;4929057;29;20243;-87
2024/04/08 09:18:11;;;;;;;6.13;3.00;;;15.10;99.90;;;;;;4936564;29;20801;-87
2024/04/08 09:20:37;;;;;;;4.73;2.90;;;15.20;99.90;;;;;;4942952;29;20301;-86
2024/04/08 09:23:04;;;;;;;4.37;2.70;;;15.40;99.90;;;;;;4939197;29;20292;-86
2024/04/08 09:25:31;;;;;;;3.67;3.17;;;15.50;99.90;;;;;;4944942;29;20292;-87
2024/04/08 09:27:59;;;;;;;3.70;3.07;;;15.70;99.90;;;;;;4948986;29;20229;-87
2024/04/08 09:30:25;;;;;;;3.20;2.90;;;15.80;99.90;;;;;;4949349;29;20201;-85
2024/04/08 09:32:52;;;;;;;4.40;3.23;;;16.00;99.90;;;;;;4944005;29;20202;-86
2024/04/08 09:35:18;;;;;;;5.77;3.87;;;16.10;99.90;;;;;;4936663;29;20221;-87
2024/04/08 09:37:46;;;;;;;5.03;3.33;;;16.10;99.90;;;;;;4939813;29;20229;-87
2024/04/08 09:40:13;;;;;;;5.03;3.30;;;16.20;99.90;;;;;;4944785;29;20305;-86
2024/04/08 09:42:43;;;;;;;5.13;3.40;;;16.20;99.90;;;;;;4945971;29;20326;-87
2024/04/08 09:45:10;;;;;;;4.00;3.60;;;16.40;99.90;;;;;;4939254;29;20247;-86
2024/04/08 09:47:38;;;;;;;5.57;3.20;;;16.60;99.90;;;;;;4939733;29;20236;-86
2024/04/08 09:50:05;;;;;;;4.27;3.70;;;16.80;99.90;;;;;;4946207;28;20667;-86
2024/04/08 09:52:32;;;;;;;4.00;3.10;;;17.00;99.90;;;;;;4944033;29;20209;-85
2024/04/08 09:54:58;;;;;;;3.97;3.20;;;17.10;99.90;;;;;;4942662;29;20205;-86
2024/04/08 09:57:27;;;;;;;3.93;2.40;;;17.30;99.90;;;;;;4947396;29;20223;-87
2024/04/08 09:59:56;;;;;;;3.07;2.33;;;17.40;99.90;;;;;;4941546;29;20201;-85
2024/04/08 10:02:31;;;;;;;4.03;2.50;;;17.50;99.90;;;;;;4945138;29;20240;-86
2024/04/08 10:05:02;;;;;;;4.13;2.47;;;17.50;99.90;;;;;;4941593;28;20300;-86
2024/04/08 10:07:30;;;;;;;3.50;2.30;;;17.50;99.90;;;;;;4944609;29;20232;-86
2024/04/08 10:09:56;;;;;;;3.53;2.30;;;17.60;99.90;;;;;;4947584;29;20284;-86
2024/04/08 10:12:31;;;;;;;4.33;2.27;;;17.70;99.90;;;;;;4944208;29;20647;-87
2024/04/08 10:15:09;;;;;;;3.93;2.40;;;17.70;99.90;;;;;;4937800;28;20292;-87
2024/04/08 10:17:36;;;;;;;3.07;2.40;;;17.20;99.90;;;;;;4940391;29;20273;-87
2024/04/08 10:20:05;;;;;;;2.93;2.17;;;17.30;99.90;;;;;;4939485;29;20205;-86
2024/04/08 10:22:34;;;;;;;2.60;1.63;;;17.40;99.90;;;;;;4942974;29;20498;-87
2024/04/08 10:25:00;;;;;;;2.13;1.50;;;17.40;99.90;;;;;;4942517;29;20830;-86
2024/04/08 10:27:28;;;;;;;2.73;2.00;;;17.50;99.90;;;;;;4940705;28;21413;-87
2024/04/08 10:29:58;;;;;;;6.20;2.50;;;17.60;99.90;;;;;;4941327;29;20206;-87
2024/04/08 10:32:26;;;;;;;2.90;1.90;;;17.70;99.90;;;;;;4944399;29;20201;-87
2024/04/08 10:34:54;;;;;;;4.30;1.80;;;18.00;99.90;;;;;;4947300;29;20288;-87
2024/04/08 11:47:27;;;;;;;4.40;1.00;;;20.70;99.90;;;;;;4934990;29;20221;-80
2024/04/08 11:49:56;;;;;;;1.90;0.90;;;20.60;99.90;;;;;;4927455;29;20232;-82
2024/04/08 11:52:23;;;;;;;1.93;1.00;;;20.60;99.90;;;;;;4936466;29;20224;-81
2024/04/08 11:54:49;;;;;;;1.33;0.97;;;20.60;99.90;;;;;;4929498;29;20240;-80
2024/04/08 11:57:16;;;;;;;2.07;0.90;;;20.70;99.90;;;;;;4924366;29;20233;-80
2024/04/08 11:59:45;;;;;;;3.60;1.93;;;20.80;99.90;;;;;;4930988;29;20205;-81
2024/04/08 12:02:15;;;;;;;2.33;1.30;;;20.90;99.90;;;;;;4933675;29;20221;-80
2024/04/08 12:05:28;;;;;;;2.00;1.10;;;21.10;99.90;;;;;;4931185;29;20750;-81
2024/04/08 12:07:56;;;;;;;2.53;1.57;;;21.30;99.90;;;;;;4897515;29;20274;-81
2024/04/08 12:10:26;;;;;;;3.63;1.80;;;21.20;99.90;;;;;;4936500;29;20237;-81
2024/04/08 12:12:54;;;;;;;2.07;1.50;;;21.20;99.90;;;;;;4934429;29;20222;-81
2024/04/08 12:15:23;;;;;;;2.47;1.40;;;21.00;99.90;;;;;;4917008;29;20212;-81
2024/04/08 12:17:50;;;;;;;2.70;1.60;;;20.90;99.90;;;;;;4921126;29;20212;-81
2024/04/08 12:20:16;;;;;;;3.10;1.80;;;20.80;99.90;;;;;;4927704;29;20201;-82
2024/04/08 12:22:43;;;;;;;2.67;2.13;;;20.70;99.90;;;;;;4931817;29;20623;-80
2024/04/08 12:25:10;;;;;;;2.20;2.00;;;20.60;99.90;;;;;;4937578;29;20284;-80
2024/04/08 12:27:37;;;;;;;2.77;2.50;;;20.60;99.90;;;;;;4931109;29;20779;-81
2024/04/08 12:33:40;;;;;;;4.63;3.20;;;20.80;99.90;;;;;;4924948;29;20196;-80
2024/04/08 12:36:09;;;;;;;6.63;3.43;;;21.10;99.90;;;;;;4914142;29;20252;-80
2024/04/08 12:38:39;;;;;;;32.03;7.53;;;21.40;99.90;;;;;;4934951;29;20403;-80
2024/04/08 12:41:12;;;;;;;5.20;4.00;;;21.50;99.90;;;;;;4936646;29;20232;-80
2024/04/08 12:51:15;;;;;;;3.77;3.03;;;21.30;99.90;;;;;;4934995;29;20184;-81
2024/04/08 13:00:43;;;;;;;5.20;4.17;;;20.60;99.90;;;;;;4895954;29;20695;-81
2024/04/08 13:03:09;;;;;;;4.37;3.97;;;20.50;99.90;;;;;;4917936;29;20217;-81
2024/04/08 13:05:36;;;;;;;5.57;4.33;;;20.40;99.90;;;;;;4932653;29;20219;-81
2024/04/08 13:14:33;;;;;;;5.77;4.90;;;20.10;99.90;;;;;;4838278;29;20211;-82
2024/04/08 13:17:26;;;;;;;5.97;5.27;;;20.00;99.90;;;;;;4856578;29;20235;-82
2024/04/08 13:19:53;;;;;;;6.33;5.43;;;20.00;99.90;;;;;;4878573;29;20217;-81
2024/04/08 13:25:47;;;;;;;7.07;6.20;;;19.80;99.90;;;;;;4928672;29;20339;-82
2024/04/08 13:34:45;;;;;;;6.83;5.60;;;19.60;99.90;;;;;;4867498;29;20216;-82
2024/04/08 13:54:51;;;;;;;5.97;5.37;;;19.60;99.90;;;;;;4751166;30;20219;-82
2024/04/08 13:57:22;;;;;;;7.83;5.70;;;19.60;99.90;;;;;;4751412;29;20837;-81
2024/04/08 13:59:56;;;;;;;6.53;5.30;;;19.60;99.90;;;;;;4819221;29;20548;-80
2024/04/08 14:28:51;;;;;;;5.27;3.60;;;19.70;99.90;;;;;;4771010;29;20235;-81
2024/04/08 14:31:47;;;;;;;4.77;3.67;;;19.70;99.90;;;;;;4786239;29;20710;-82
2024/04/08 14:34:17;;;;;;;5.27;3.97;;;19.70;99.90;;;;;;4852998;29;20307;-82
2024/04/08 15:49:15;;;;;;;3.07;2.00;;;19.50;99.90;;;;;;4758307;30;20239;-83
2024/04/08 15:51:41;;;;;;;3.43;2.27;;;19.50;99.90;;;;;;4828872;29;20599;-83
2024/04/08 15:56:43;;;;;;;5.23;2.00;;;19.40;99.90;;;;;;5558871;25;20620;-82
2024/04/08 15:59:46;;;;;;;3.00;1.87;;;19.40;99.90;;;;;;5493928;25;20235;-81
2024/04/08 16:02:49;;;;;;;4.10;2.23;;;19.40;99.90;;;;;;5448638;26;20250;-81
2024/04/08 16:05:15;;;;;;;2.43;1.90;;;19.50;99.90;;;;;;5502081;26;20585;-81
2024/04/08 16:08:09;;;;;;;3.70;1.80;;;19.50;99.90;;;;;;5490903;26;20245;-81
2024/04/08 16:10:48;;;;;;;2.87;1.60;;;19.50;99.90;;;;;;5497601;26;20231;-81
2024/04/08 16:14:21;;;;;;;2.83;1.87;;;19.50;99.90;;;;;;5489957;26;20334;-81
2024/04/08 16:20:28;;;;;;;3.27;1.80;;;19.40;99.90;;;;;;5474841;26;20308;-82
2024/04/08 16:23:01;;;;;;;5.73;1.93;;;19.40;99.90;;;;;;5486940;26;20290;-81
2024/04/08 16:25:29;;;;;;;4.00;2.03;;;19.20;99.90;;;;;;5469010;26;20726;-81
2024/04/08 16:28:33;;;;;;;2.67;1.80;;;19.10;99.90;;;;;;5495165;26;20277;-82
2024/04/08 16:31:15;;;;;;;4.90;2.00;;;19.40;99.90;;;;;;5496802;26;20238;-82
2024/04/08 16:33:54;;;;;;;3.57;1.23;;;19.70;99.90;;;;;;5492181;26;20288;-82
2024/04/08 16:36:27;;;;;;;2.87;1.30;;;20.00;99.90;;;;;;5491537;26;20274;-81
2024/04/08 16:39:09;;;;;;;3.60;1.10;;;20.30;99.90;;;;;;5493668;26;20269;-81
2024/04/08 16:41:42;;;;;;;4.00;1.40;;;20.50;99.90;;;;;;5497620;25;20333;-81